sensor_id;sensor_type;location;lat;lon;timestamp;P1;durP1;ratioP1;P2;durP2;ratioP2
17696;SDS011;8967;47.984;7.842;2023-02-01T00:00:30;5.97;;;3.77;;
17696;SDS011;8967;47.984;7.842;2023-02-01T00:03:00;6.63;;;3.37;;
17696;SDS011;8967;47.984;7.842;2023-02-01T00:05:27;5.37;;;3.30;;
17696;SDS011;8967;47.984;7.842;2023-02-01T00:07:54;5.17;;;3.27;;
17696;SDS011;8967;47.984;7.842;2023-02-01T00:10:21;5.30;;;3.33;;
17696;SDS011;8967;47.984;7.842;2023-02-01T00:12:48;5.07;;;3.13;;
17696;SDS011;8967;47.984;7.842;2023-02-01T00:15:15;4.30;;;3.13;;
17696;SDS011;8967;47.984;7.842;2023-02-01T00:17:42;6.43;;;3.83;;
17696;SDS011;8967;47.984;7.842;2023-02-01T00:20:11;5.53;;;3.23;;
17696;SDS011;8967;47.984;7.842;2023-02-01T00:22:37;4.70;;;3.42;;
17696;SDS011;8967;47.984;7.842;2023-02-01T00:25:05;4.60;;;3.10;;
17696;SDS011;8967;47.984;7.842;2023-02-01T00:27:32;5.93;;;3.50;;
17696;SDS011;8967;47.984;7.842;2023-02-01T00:30:02;5.47;;;3.17;;
17696;SDS011;8967;47.984;7.842;2023-02-01T00:32:29;4.90;;;3.23;;
17696;SDS011;8967;47.984;7.842;2023-02-01T00:34:59;6.80;;;3.37;;
17696;SDS011;8967;47.984;7.842;2023-02-01T00:37:27;4.60;;;3.20;;
17696;SDS011;8967;47.984;7.842;2023-02-01T00:39:54;5.40;;;3.27;;
17696;SDS011;8967;47.984;7.842;2023-02-01T00:42:21;4.22;;;3.05;;
17696;SDS011;8967;47.984;7.842;2023-02-01T00:44:48;3.97;;;3.08;;
17696;SDS011;8967;47.984;7.842;2023-02-01T00:47:15;4.75;;;2.80;;
17696;SDS011;8967;47.984;7.842;2023-02-01T00:49:42;4.53;;;3.27;;
17696;SDS011;8967;47.984;7.842;2023-02-01T00:52:08;4.35;;;3.05;;
17696;SDS011;8967;47.984;7.842;2023-02-01T00:54:37;5.43;;;3.50;;
17696;SDS011;8967;47.984;7.842;2023-02-01T00:57:04;5.83;;;3.23;;
17696;SDS011;8967;47.984;7.842;2023-02-01T00:59:30;3.20;;;2.90;;
17696;SDS011;8967;47.984;7.842;2023-02-01T01:01:57;3.20;;;2.80;;
17696;SDS011;8967;47.984;7.842;2023-02-01T01:04:27;3.63;;;2.60;;
17696;SDS011;8967;47.984;7.842;2023-02-01T01:06:53;4.30;;;2.93;;
17696;SDS011;8967;47.984;7.842;2023-02-01T01:09:20;5.53;;;2.70;;
17696;SDS011;8967;47.984;7.842;2023-02-01T01:11:49;5.93;;;2.70;;
17696;SDS011;8967;47.984;7.842;2023-02-01T01:14:17;4.53;;;3.00;;
17696;SDS011;8967;47.984;7.842;2023-02-01T01:16:44;6.77;;;2.87;;
17696;SDS011;8967;47.984;7.842;2023-02-01T01:19:11;4.80;;;2.60;;
17696;SDS011;8967;47.984;7.842;2023-02-01T01:21:38;5.83;;;3.33;;
17696;SDS011;8967;47.984;7.842;2023-02-01T01:24:07;4.10;;;2.67;;
17696;SDS011;8967;47.984;7.842;2023-02-01T01:26:36;4.00;;;2.63;;
17696;SDS011;8967;47.984;7.842;2023-02-01T01:29:05;5.77;;;2.73;;
17696;SDS011;8967;47.984;7.842;2023-02-01T01:31:32;3.30;;;2.83;;
17696;SDS011;8967;47.984;7.842;2023-02-01T01:33:59;7.33;;;3.40;;
17696;SDS011;8967;47.984;7.842;2023-02-01T01:36:27;4.83;;;3.00;;
17696;SDS011;8967;47.984;7.842;2023-02-01T01:38:55;6.47;;;2.90;;
17696;SDS011;8967;47.984;7.842;2023-02-01T01:41:23;4.73;;;3.23;;
17696;SDS011;8967;47.984;7.842;2023-02-01T01:43:54;4.33;;;2.67;;
17696;SDS011;8967;47.984;7.842;2023-02-01T01:46:27;8.53;;;3.20;;
17696;SDS011;8967;47.984;7.842;2023-02-01T01:48:56;3.80;;;2.80;;
17696;SDS011;8967;47.984;7.842;2023-02-01T01:51:31;5.57;;;3.00;;
17696;SDS011;8967;47.984;7.842;2023-02-01T01:54:03;6.30;;;3.40;;
17696;SDS011;8967;47.984;7.842;2023-02-01T01:56:33;4.80;;;2.93;;
17696;SDS011;8967;47.984;7.842;2023-02-01T01:59:02;4.20;;;2.90;;
17696;SDS011;8967;47.984;7.842;2023-02-01T02:01:32;4.87;;;3.00;;
17696;SDS011;8967;47.984;7.842;2023-02-01T02:03:59;6.60;;;3.13;;
17696;SDS011;8967;47.984;7.842;2023-02-01T02:06:30;5.43;;;2.60;;
17696;SDS011;8967;47.984;7.842;2023-02-01T02:09:05;4.23;;;2.40;;
17696;SDS011;8967;47.984;7.842;2023-02-01T02:11:32;4.43;;;2.57;;
17696;SDS011;8967;47.984;7.842;2023-02-01T02:14:01;4.63;;;2.70;;
17696;SDS011;8967;47.984;7.842;2023-02-01T02:16:40;3.53;;;2.43;;
17696;SDS011;8967;47.984;7.842;2023-02-01T02:26:13;4.40;;;2.20;;
17696;SDS011;8967;47.984;7.842;2023-02-01T02:32:08;4.97;;;2.77;;
17696;SDS011;8967;47.984;7.842;2023-02-01T02:35:01;3.03;;;2.30;;
17696;SDS011;8967;47.984;7.842;2023-02-01T02:37:33;4.57;;;2.57;;
17696;SDS011;8967;47.984;7.842;2023-02-01T02:40:08;4.87;;;2.47;;
17696;SDS011;8967;47.984;7.842;2023-02-01T02:42:42;3.57;;;2.47;;
17696;SDS011;8967;47.984;7.842;2023-02-01T02:45:34;5.60;;;2.77;;
17696;SDS011;8967;47.984;7.842;2023-02-01T02:48:25;3.13;;;2.10;;
17696;SDS011;8967;47.984;7.842;2023-02-01T02:50:58;6.57;;;3.27;;
17696;SDS011;8967;47.984;7.842;2023-02-01T02:53:47;4.60;;;2.80;;
17696;SDS011;8967;47.984;7.842;2023-02-01T02:56:41;5.20;;;2.90;;
17696;SDS011;8967;47.984;7.842;2023-02-01T02:59:26;5.47;;;2.90;;
17696;SDS011;8967;47.984;7.842;2023-02-01T03:02:12;4.87;;;2.73;;
17696;SDS011;8967;47.984;7.842;2023-02-01T03:04:58;5.63;;;2.90;;
17696;SDS011;8967;47.984;7.842;2023-02-01T03:10:24;3.10;;;2.40;;
17696;SDS011;8967;47.984;7.842;2023-02-01T03:13:00;3.57;;;2.43;;
17696;SDS011;8967;47.984;7.842;2023-02-01T03:15:32;4.63;;;2.40;;
17696;SDS011;8967;47.984;7.842;2023-02-01T03:18:02;5.80;;;2.53;;
17696;SDS011;8967;47.984;7.842;2023-02-01T03:20:37;3.03;;;2.40;;
17696;SDS011;8967;47.984;7.842;2023-02-01T03:23:08;5.73;;;2.30;;
17696;SDS011;8967;47.984;7.842;2023-02-01T03:25:38;3.43;;;2.73;;
17696;SDS011;8967;47.984;7.842;2023-02-01T03:28:07;4.93;;;2.70;;
17696;SDS011;8967;47.984;7.842;2023-02-01T03:30:38;4.87;;;2.90;;
17696;SDS011;8967;47.984;7.842;2023-02-01T03:33:11;5.03;;;2.77;;
17696;SDS011;8967;47.984;7.842;2023-02-01T03:35:59;5.67;;;2.70;;
17696;SDS011;8967;47.984;7.842;2023-02-01T03:38:34;6.63;;;2.50;;
17696;SDS011;8967;47.984;7.842;2023-02-01T03:41:11;5.33;;;3.17;;
17696;SDS011;8967;47.984;7.842;2023-02-01T03:43:43;6.47;;;3.30;;
17696;SDS011;8967;47.984;7.842;2023-02-01T03:46:20;4.30;;;2.87;;
17696;SDS011;8967;47.984;7.842;2023-02-01T03:48:52;5.20;;;3.30;;
17696;SDS011;8967;47.984;7.842;2023-02-01T03:51:21;6.70;;;3.63;;
17696;SDS011;8967;47.984;7.842;2023-02-01T03:53:51;5.10;;;3.20;;
17696;SDS011;8967;47.984;7.842;2023-02-01T03:56:21;4.77;;;3.50;;
17696;SDS011;8967;47.984;7.842;2023-02-01T03:58:49;5.40;;;3.40;;
17696;SDS011;8967;47.984;7.842;2023-02-01T04:01:27;4.80;;;3.30;;
17696;SDS011;8967;47.984;7.842;2023-02-01T04:03:56;5.13;;;3.50;;
17696;SDS011;8967;47.984;7.842;2023-02-01T04:06:23;5.60;;;3.53;;
17696;SDS011;8967;47.984;7.842;2023-02-01T04:08:53;6.27;;;3.90;;
17696;SDS011;8967;47.984;7.842;2023-02-01T04:11:20;6.63;;;3.50;;
17696;SDS011;8967;47.984;7.842;2023-02-01T04:13:47;5.53;;;3.63;;
17696;SDS011;8967;47.984;7.842;2023-02-01T04:16:14;6.07;;;3.70;;
17696;SDS011;8967;47.984;7.842;2023-02-01T04:18:43;5.13;;;3.33;;
17696;SDS011;8967;47.984;7.842;2023-02-01T04:21:10;10.10;;;3.40;;
17696;SDS011;8967;47.984;7.842;2023-02-01T04:23:37;8.03;;;3.93;;
17696;SDS011;8967;47.984;7.842;2023-02-01T04:26:05;8.50;;;4.20;;
17696;SDS011;8967;47.984;7.842;2023-02-01T04:28:32;5.83;;;3.37;;
17696;SDS011;8967;47.984;7.842;2023-02-01T04:30:59;8.13;;;4.40;;
17696;SDS011;8967;47.984;7.842;2023-02-01T04:33:26;8.63;;;4.03;;
17696;SDS011;8967;47.984;7.842;2023-02-01T04:35:53;6.77;;;4.10;;
17696;SDS011;8967;47.984;7.842;2023-02-01T04:38:20;6.87;;;3.93;;
17696;SDS011;8967;47.984;7.842;2023-02-01T04:40:47;4.80;;;3.40;;
17696;SDS011;8967;47.984;7.842;2023-02-01T04:43:15;6.80;;;3.70;;
17696;SDS011;8967;47.984;7.842;2023-02-01T04:45:48;5.33;;;3.43;;
17696;SDS011;8967;47.984;7.842;2023-02-01T04:48:15;4.63;;;3.30;;
17696;SDS011;8967;47.984;7.842;2023-02-01T04:50:42;4.50;;;3.40;;
17696;SDS011;8967;47.984;7.842;2023-02-01T04:53:12;4.17;;;3.10;;
17696;SDS011;8967;47.984;7.842;2023-02-01T04:55:40;5.07;;;3.17;;
17696;SDS011;8967;47.984;7.842;2023-02-01T04:58:07;5.60;;;3.10;;
17696;SDS011;8967;47.984;7.842;2023-02-01T05:00:35;4.90;;;2.90;;
17696;SDS011;8967;47.984;7.842;2023-02-01T05:03:03;6.07;;;2.93;;
17696;SDS011;8967;47.984;7.842;2023-02-01T05:05:29;6.43;;;3.50;;
17696;SDS011;8967;47.984;7.842;2023-02-01T05:07:57;4.73;;;2.63;;
17696;SDS011;8967;47.984;7.842;2023-02-01T05:10:24;4.43;;;3.10;;
17696;SDS011;8967;47.984;7.842;2023-02-01T05:12:51;3.40;;;2.70;;
17696;SDS011;8967;47.984;7.842;2023-02-01T05:15:39;5.10;;;2.70;;
17696;SDS011;8967;47.984;7.842;2023-02-01T05:18:06;4.80;;;3.10;;
17696;SDS011;8967;47.984;7.842;2023-02-01T05:20:33;6.30;;;3.30;;
17696;SDS011;8967;47.984;7.842;2023-02-01T05:23:00;5.10;;;2.77;;
17696;SDS011;8967;47.984;7.842;2023-02-01T05:25:26;6.07;;;3.07;;
17696;SDS011;8967;47.984;7.842;2023-02-01T05:27:55;6.67;;;3.10;;
17696;SDS011;8967;47.984;7.842;2023-02-01T05:30:22;4.67;;;2.80;;
17696;SDS011;8967;47.984;7.842;2023-02-01T05:32:53;10.83;;;3.30;;
17696;SDS011;8967;47.984;7.842;2023-02-01T05:35:22;3.67;;;2.70;;
17696;SDS011;8967;47.984;7.842;2023-02-01T05:37:49;7.40;;;3.40;;
17696;SDS011;8967;47.984;7.842;2023-02-01T05:40:16;5.57;;;3.37;;
17696;SDS011;8967;47.984;7.842;2023-02-01T05:42:43;5.80;;;3.00;;
17696;SDS011;8967;47.984;7.842;2023-02-01T05:45:10;7.23;;;3.03;;
17696;SDS011;8967;47.984;7.842;2023-02-01T05:47:37;9.00;;;3.40;;
17696;SDS011;8967;47.984;7.842;2023-02-01T05:50:06;4.73;;;2.90;;
17696;SDS011;8967;47.984;7.842;2023-02-01T05:52:34;6.53;;;2.80;;
17696;SDS011;8967;47.984;7.842;2023-02-01T05:55:00;6.30;;;3.30;;
17696;SDS011;8967;47.984;7.842;2023-02-01T05:57:27;5.50;;;2.80;;
17696;SDS011;8967;47.984;7.842;2023-02-01T05:59:55;7.97;;;3.57;;
17696;SDS011;8967;47.984;7.842;2023-02-01T06:02:22;5.10;;;2.67;;
17696;SDS011;8967;47.984;7.842;2023-02-01T06:04:49;5.77;;;2.80;;
17696;SDS011;8967;47.984;7.842;2023-02-01T06:07:17;4.37;;;2.73;;
17696;SDS011;8967;47.984;7.842;2023-02-01T06:09:44;4.87;;;3.00;;
17696;SDS011;8967;47.984;7.842;2023-02-01T06:12:11;8.13;;;3.23;;
17696;SDS011;8967;47.984;7.842;2023-02-01T06:14:41;4.37;;;2.80;;
17696;SDS011;8967;47.984;7.842;2023-02-01T06:17:08;7.43;;;3.37;;
17696;SDS011;8967;47.984;7.842;2023-02-01T06:19:35;4.23;;;2.70;;
17696;SDS011;8967;47.984;7.842;2023-02-01T06:22:02;5.40;;;2.97;;
17696;SDS011;8967;47.984;7.842;2023-02-01T06:24:32;5.47;;;3.00;;
17696;SDS011;8967;47.984;7.842;2023-02-01T06:26:59;3.07;;;2.30;;
17696;SDS011;8967;47.984;7.842;2023-02-01T06:29:26;3.30;;;2.17;;
17696;SDS011;8967;47.984;7.842;2023-02-01T06:31:53;4.33;;;2.00;;
17696;SDS011;8967;47.984;7.842;2023-02-01T06:34:20;3.50;;;2.30;;
17696;SDS011;8967;47.984;7.842;2023-02-01T06:36:48;2.77;;;1.90;;
17696;SDS011;8967;47.984;7.842;2023-02-01T06:39:17;2.60;;;1.93;;
17696;SDS011;8967;47.984;7.842;2023-02-01T06:41:46;3.87;;;1.83;;
17696;SDS011;8967;47.984;7.842;2023-02-01T06:44:14;3.47;;;1.70;;
17696;SDS011;8967;47.984;7.842;2023-02-01T06:46:41;2.57;;;2.00;;
17696;SDS011;8967;47.984;7.842;2023-02-01T06:49:09;4.57;;;2.20;;
17696;SDS011;8967;47.984;7.842;2023-02-01T06:51:35;2.93;;;1.77;;
17696;SDS011;8967;47.984;7.842;2023-02-01T06:54:04;4.73;;;2.00;;
17696;SDS011;8967;47.984;7.842;2023-02-01T06:56:31;4.80;;;1.97;;
17696;SDS011;8967;47.984;7.842;2023-02-01T06:59:01;2.10;;;1.20;;
17696;SDS011;8967;47.984;7.842;2023-02-01T07:01:30;2.23;;;1.63;;
17696;SDS011;8967;47.984;7.842;2023-02-01T07:03:56;3.03;;;1.53;;
17696;SDS011;8967;47.984;7.842;2023-02-01T07:06:23;5.87;;;1.97;;
17696;SDS011;8967;47.984;7.842;2023-02-01T07:08:50;1.47;;;1.37;;
17696;SDS011;8967;47.984;7.842;2023-02-01T07:11:20;2.00;;;1.43;;
17696;SDS011;8967;47.984;7.842;2023-02-01T07:13:50;1.47;;;1.17;;
17696;SDS011;8967;47.984;7.842;2023-02-01T07:16:19;3.10;;;1.60;;
17696;SDS011;8967;47.984;7.842;2023-02-01T07:18:46;1.90;;;1.10;;
17696;SDS011;8967;47.984;7.842;2023-02-01T07:21:16;2.30;;;1.33;;
17696;SDS011;8967;47.984;7.842;2023-02-01T07:23:44;4.20;;;1.87;;
17696;SDS011;8967;47.984;7.842;2023-02-01T07:26:11;2.63;;;1.70;;
17696;SDS011;8967;47.984;7.842;2023-02-01T07:28:39;1.80;;;1.43;;
17696;SDS011;8967;47.984;7.842;2023-02-01T07:31:07;1.30;;;1.20;;
17696;SDS011;8967;47.984;7.842;2023-02-01T07:33:36;4.47;;;1.60;;
17696;SDS011;8967;47.984;7.842;2023-02-01T07:36:04;3.70;;;1.43;;
17696;SDS011;8967;47.984;7.842;2023-02-01T07:38:32;2.33;;;1.40;;
17696;SDS011;8967;47.984;7.842;2023-02-01T07:40:59;4.07;;;1.77;;
17696;SDS011;8967;47.984;7.842;2023-02-01T07:43:27;2.90;;;1.90;;
17696;SDS011;8967;47.984;7.842;2023-02-01T07:45:55;2.60;;;1.70;;
17696;SDS011;8967;47.984;7.842;2023-02-01T07:48:23;2.97;;;2.07;;
17696;SDS011;8967;47.984;7.842;2023-02-01T07:50:57;3.23;;;1.80;;
17696;SDS011;8967;47.984;7.842;2023-02-01T07:53:28;2.93;;;1.80;;
17696;SDS011;8967;47.984;7.842;2023-02-01T07:55:56;2.83;;;1.70;;
17696;SDS011;8967;47.984;7.842;2023-02-01T07:58:23;4.33;;;2.03;;
17696;SDS011;8967;47.984;7.842;2023-02-01T08:00:51;5.60;;;1.90;;
17696;SDS011;8967;47.984;7.842;2023-02-01T08:03:35;6.87;;;2.07;;
17696;SDS011;8967;47.984;7.842;2023-02-01T08:06:04;3.07;;;2.23;;
17696;SDS011;8967;47.984;7.842;2023-02-01T08:08:32;4.27;;;2.37;;
17696;SDS011;8967;47.984;7.842;2023-02-01T08:10:59;4.17;;;2.17;;
17696;SDS011;8967;47.984;7.842;2023-02-01T08:13:26;4.10;;;2.30;;
17696;SDS011;8967;47.984;7.842;2023-02-01T08:15:57;4.87;;;2.30;;
17696;SDS011;8967;47.984;7.842;2023-02-01T08:18:25;5.00;;;2.20;;
17696;SDS011;8967;47.984;7.842;2023-02-01T08:20:52;3.37;;;1.87;;
17696;SDS011;8967;47.984;7.842;2023-02-01T08:23:21;2.70;;;1.93;;
17696;SDS011;8967;47.984;7.842;2023-02-01T08:25:49;2.93;;;1.90;;
17696;SDS011;8967;47.984;7.842;2023-02-01T08:28:18;2.17;;;1.60;;
17696;SDS011;8967;47.984;7.842;2023-02-01T08:30:45;2.87;;;1.50;;
17696;SDS011;8967;47.984;7.842;2023-02-01T08:33:12;2.10;;;1.70;;
17696;SDS011;8967;47.984;7.842;2023-02-01T08:35:39;1.50;;;1.40;;
17696;SDS011;8967;47.984;7.842;2023-02-01T08:38:06;2.33;;;1.70;;
17696;SDS011;8967;47.984;7.842;2023-02-01T08:40:35;3.03;;;1.50;;
17696;SDS011;8967;47.984;7.842;2023-02-01T08:43:02;2.77;;;1.83;;
17696;SDS011;8967;47.984;7.842;2023-02-01T08:45:29;2.00;;;1.50;;
17696;SDS011;8967;47.984;7.842;2023-02-01T08:47:57;1.60;;;1.20;;
17696;SDS011;8967;47.984;7.842;2023-02-01T08:50:24;4.10;;;1.30;;
17696;SDS011;8967;47.984;7.842;2023-02-01T08:52:51;3.40;;;1.47;;
17696;SDS011;8967;47.984;7.842;2023-02-01T08:55:18;1.83;;;1.27;;
17696;SDS011;8967;47.984;7.842;2023-02-01T08:57:47;2.13;;;1.43;;
17696;SDS011;8967;47.984;7.842;2023-02-01T09:00:14;2.47;;;1.67;;
17696;SDS011;8967;47.984;7.842;2023-02-01T09:02:43;1.97;;;1.60;;
17696;SDS011;8967;47.984;7.842;2023-02-01T09:05:10;2.50;;;1.47;;
17696;SDS011;8967;47.984;7.842;2023-02-01T09:07:41;2.23;;;1.27;;
17696;SDS011;8967;47.984;7.842;2023-02-01T09:10:10;2.43;;;1.73;;
17696;SDS011;8967;47.984;7.842;2023-02-01T09:12:37;2.43;;;1.30;;
17696;SDS011;8967;47.984;7.842;2023-02-01T09:15:06;3.57;;;1.33;;
17696;SDS011;8967;47.984;7.842;2023-02-01T09:17:36;2.30;;;1.20;;
17696;SDS011;8967;47.984;7.842;2023-02-01T09:20:04;3.17;;;1.40;;
17696;SDS011;8967;47.984;7.842;2023-02-01T09:22:33;3.07;;;1.43;;
17696;SDS011;8967;47.984;7.842;2023-02-01T09:25:00;4.70;;;1.63;;
17696;SDS011;8967;47.984;7.842;2023-02-01T09:27:27;4.97;;;2.00;;
17696;SDS011;8967;47.984;7.842;2023-02-01T09:29:54;4.60;;;2.17;;
17696;SDS011;8967;47.984;7.842;2023-02-01T09:32:23;4.43;;;2.20;;
17696;SDS011;8967;47.984;7.842;2023-02-01T09:34:50;3.20;;;1.70;;
17696;SDS011;8967;47.984;7.842;2023-02-01T09:37:18;4.50;;;1.90;;
17696;SDS011;8967;47.984;7.842;2023-02-01T09:39:45;2.73;;;2.17;;
17696;SDS011;8967;47.984;7.842;2023-02-01T09:42:16;2.63;;;2.10;;
17696;SDS011;8967;47.984;7.842;2023-02-01T09:45:04;4.13;;;2.40;;
17696;SDS011;8967;47.984;7.842;2023-02-01T09:47:40;2.43;;;2.10;;
17696;SDS011;8967;47.984;7.842;2023-02-01T09:50:13;4.37;;;2.40;;
17696;SDS011;8967;47.984;7.842;2023-02-01T09:52:46;4.90;;;2.37;;
17696;SDS011;8967;47.984;7.842;2023-02-01T09:55:19;5.30;;;2.50;;
17696;SDS011;8967;47.984;7.842;2023-02-01T09:57:53;2.90;;;2.13;;
17696;SDS011;8967;47.984;7.842;2023-02-01T10:00:27;3.03;;;2.07;;
17696;SDS011;8967;47.984;7.842;2023-02-01T10:02:59;3.07;;;2.30;;
17696;SDS011;8967;47.984;7.842;2023-02-01T10:05:35;4.10;;;2.73;;
17696;SDS011;8967;47.984;7.842;2023-02-01T10:08:18;4.43;;;2.50;;
17696;SDS011;8967;47.984;7.842;2023-02-01T10:10:51;7.93;;;3.77;;
17696;SDS011;8967;47.984;7.842;2023-02-01T10:13:42;6.80;;;2.90;;
17696;SDS011;8967;47.984;7.842;2023-02-01T10:16:21;9.20;;;2.87;;
17696;SDS011;8967;47.984;7.842;2023-02-01T10:19:01;5.73;;;2.80;;
17696;SDS011;8967;47.984;7.842;2023-02-01T10:21:47;10.67;;;3.20;;
17696;SDS011;8967;47.984;7.842;2023-02-01T10:24:34;5.67;;;2.97;;
17696;SDS011;8967;47.984;7.842;2023-02-01T10:27:17;6.80;;;3.50;;
17696;SDS011;8967;47.984;7.842;2023-02-01T10:29:50;5.88;;;2.85;;
17696;SDS011;8967;47.984;7.842;2023-02-01T10:32:21;5.57;;;2.70;;
17696;SDS011;8967;47.984;7.842;2023-02-01T10:34:51;8.43;;;3.00;;
17696;SDS011;8967;47.984;7.842;2023-02-01T10:37:24;5.28;;;3.42;;
17696;SDS011;8967;47.984;7.842;2023-02-01T10:39:54;12.02;;;3.28;;
17696;SDS011;8967;47.984;7.842;2023-02-01T10:42:24;4.70;;;2.70;;
17696;SDS011;8967;47.984;7.842;2023-02-01T10:44:52;5.63;;;2.65;;
17696;SDS011;8967;47.984;7.842;2023-02-01T10:47:23;8.53;;;2.87;;
17696;SDS011;8967;47.984;7.842;2023-02-01T10:49:54;8.33;;;3.37;;
17696;SDS011;8967;47.984;7.842;2023-02-01T10:52:31;9.63;;;2.90;;
17696;SDS011;8967;47.984;7.842;2023-02-01T10:57:57;6.13;;;2.85;;
17696;SDS011;8967;47.984;7.842;2023-02-01T11:00:25;9.60;;;3.35;;
17696;SDS011;8967;47.984;7.842;2023-02-01T11:02:54;5.68;;;2.40;;
17696;SDS011;8967;47.984;7.842;2023-02-01T11:05:22;3.97;;;2.63;;
17696;SDS011;8967;47.984;7.842;2023-02-01T11:07:53;6.93;;;2.88;;
17696;SDS011;8967;47.984;7.842;2023-02-01T11:10:33;9.73;;;3.20;;
17696;SDS011;8967;47.984;7.842;2023-02-01T11:13:02;6.93;;;2.80;;
17696;SDS011;8967;47.984;7.842;2023-02-01T11:15:30;8.02;;;3.50;;
17696;SDS011;8967;47.984;7.842;2023-02-01T11:17:57;5.35;;;2.80;;
17696;SDS011;8967;47.984;7.842;2023-02-01T11:20:42;3.90;;;2.40;;
17696;SDS011;8967;47.984;7.842;2023-02-01T11:23:14;6.35;;;2.78;;
17696;SDS011;8967;47.984;7.842;2023-02-01T11:25:52;5.00;;;2.95;;
17696;SDS011;8967;47.984;7.842;2023-02-01T11:28:21;9.15;;;3.58;;
17696;SDS011;8967;47.984;7.842;2023-02-01T11:30:53;3.92;;;2.55;;
17696;SDS011;8967;47.984;7.842;2023-02-01T11:33:24;7.55;;;2.80;;
17696;SDS011;8967;47.984;7.842;2023-02-01T11:35:56;5.63;;;2.28;;
17696;SDS011;8967;47.984;7.842;2023-02-01T11:38:27;5.85;;;2.85;;
17696;SDS011;8967;47.984;7.842;2023-02-01T11:40:57;8.05;;;2.67;;
17696;SDS011;8967;47.984;7.842;2023-02-01T11:43:38;8.68;;;2.90;;
17696;SDS011;8967;47.984;7.842;2023-02-01T11:46:18;9.15;;;3.55;;
17696;SDS011;8967;47.984;7.842;2023-02-01T11:48:50;10.95;;;3.90;;
17696;SDS011;8967;47.984;7.842;2023-02-01T11:51:28;6.88;;;3.50;;
17696;SDS011;8967;47.984;7.842;2023-02-01T11:54:11;8.85;;;3.22;;
17696;SDS011;8967;47.984;7.842;2023-02-01T11:56:58;8.40;;;3.25;;
17696;SDS011;8967;47.984;7.842;2023-02-01T11:59:41;8.43;;;2.90;;
17696;SDS011;8967;47.984;7.842;2023-02-01T12:02:33;10.45;;;2.83;;
17696;SDS011;8967;47.984;7.842;2023-02-01T12:08:25;6.45;;;2.70;;
17696;SDS011;8967;47.984;7.842;2023-02-01T12:11:29;7.53;;;3.40;;
17696;SDS011;8967;47.984;7.842;2023-02-01T12:14:05;7.95;;;2.70;;
17696;SDS011;8967;47.984;7.842;2023-02-01T12:16:51;7.63;;;2.63;;
17696;SDS011;8967;47.984;7.842;2023-02-01T12:19:34;8.55;;;3.20;;
17696;SDS011;8967;47.984;7.842;2023-02-01T12:22:14;6.60;;;2.42;;
17696;SDS011;8967;47.984;7.842;2023-02-01T12:24:55;10.45;;;3.03;;
17696;SDS011;8967;47.984;7.842;2023-02-01T12:30:56;13.50;;;3.67;;
17696;SDS011;8967;47.984;7.842;2023-02-01T12:33:39;11.90;;;2.50;;
17696;SDS011;8967;47.984;7.842;2023-02-01T12:36:18;7.97;;;2.67;;
17696;SDS011;8967;47.984;7.842;2023-02-01T12:38:53;9.50;;;2.90;;
17696;SDS011;8967;47.984;7.842;2023-02-01T12:41:31;9.25;;;2.67;;
17696;SDS011;8967;47.984;7.842;2023-02-01T12:44:21;10.70;;;3.33;;
17696;SDS011;8967;47.984;7.842;2023-02-01T12:46:56;6.25;;;2.80;;
17696;SDS011;8967;47.984;7.842;2023-02-01T12:49:28;9.88;;;3.05;;
17696;SDS011;8967;47.984;7.842;2023-02-01T12:52:06;8.15;;;3.20;;
17696;SDS011;8967;47.984;7.842;2023-02-01T12:54:39;5.68;;;2.55;;
17696;SDS011;8967;47.984;7.842;2023-02-01T12:57:12;12.10;;;3.58;;
17696;SDS011;8967;47.984;7.842;2023-02-01T12:59:46;15.82;;;3.55;;
17696;SDS011;8967;47.984;7.842;2023-02-01T13:02:19;6.13;;;2.70;;
17696;SDS011;8967;47.984;7.842;2023-02-01T13:04:53;8.80;;;2.72;;
17696;SDS011;8967;47.984;7.842;2023-02-01T13:07:28;14.57;;;3.70;;
17696;SDS011;8967;47.984;7.842;2023-02-01T13:09:59;10.68;;;2.90;;
17696;SDS011;8967;47.984;7.842;2023-02-01T13:12:34;10.75;;;3.17;;
17696;SDS011;8967;47.984;7.842;2023-02-01T13:15:05;10.40;;;2.83;;
17696;SDS011;8967;47.984;7.842;2023-02-01T13:17:42;8.23;;;2.63;;
17696;SDS011;8967;47.984;7.842;2023-02-01T13:20:15;8.70;;;2.40;;
17696;SDS011;8967;47.984;7.842;2023-02-01T13:22:47;18.73;;;3.53;;
17696;SDS011;8967;47.984;7.842;2023-02-01T13:25:19;11.52;;;3.33;;
17696;SDS011;8967;47.984;7.842;2023-02-01T13:27:58;16.35;;;3.55;;
17696;SDS011;8967;47.984;7.842;2023-02-01T13:30:32;9.32;;;3.35;;
17696;SDS011;8967;47.984;7.842;2023-02-01T13:33:15;7.45;;;3.03;;
17696;SDS011;8967;47.984;7.842;2023-02-01T13:36:02;4.78;;;2.33;;
17696;SDS011;8967;47.984;7.842;2023-02-01T13:38:49;10.77;;;2.63;;
17696;SDS011;8967;47.984;7.842;2023-02-01T13:41:41;14.15;;;3.08;;
17696;SDS011;8967;47.984;7.842;2023-02-01T13:44:22;7.03;;;3.13;;
17696;SDS011;8967;47.984;7.842;2023-02-01T13:46:54;9.55;;;3.05;;
17696;SDS011;8967;47.984;7.842;2023-02-01T13:49:26;13.20;;;2.80;;
17696;SDS011;8967;47.984;7.842;2023-02-01T13:51:57;10.25;;;2.50;;
17696;SDS011;8967;47.984;7.842;2023-02-01T13:54:26;7.93;;;2.85;;
17696;SDS011;8967;47.984;7.842;2023-02-01T13:57:00;7.32;;;2.40;;
17696;SDS011;8967;47.984;7.842;2023-02-01T14:02:42;8.55;;;2.60;;
17696;SDS011;8967;47.984;7.842;2023-02-01T14:08:23;7.80;;;2.67;;
17696;SDS011;8967;47.984;7.842;2023-02-01T14:11:03;8.35;;;2.55;;
17696;SDS011;8967;47.984;7.842;2023-02-01T14:13:31;14.82;;;2.55;;
17696;SDS011;8967;47.984;7.842;2023-02-01T14:16:16;14.57;;;2.60;;
17696;SDS011;8967;47.984;7.842;2023-02-01T14:18:59;5.78;;;2.05;;
17696;SDS011;8967;47.984;7.842;2023-02-01T14:21:29;14.35;;;2.78;;
17696;SDS011;8967;47.984;7.842;2023-02-01T14:23:59;10.40;;;2.78;;
17696;SDS011;8967;47.984;7.842;2023-02-01T14:26:40;9.98;;;2.50;;
17696;SDS011;8967;47.984;7.842;2023-02-01T14:29:15;8.05;;;2.28;;
17696;SDS011;8967;47.984;7.842;2023-02-01T14:31:52;10.30;;;2.63;;
17696;SDS011;8967;47.984;7.842;2023-02-01T14:34:28;10.13;;;2.63;;
17696;SDS011;8967;47.984;7.842;2023-02-01T14:37:02;11.07;;;2.80;;
17696;SDS011;8967;47.984;7.842;2023-02-01T14:39:34;8.18;;;2.90;;
17696;SDS011;8967;47.984;7.842;2023-02-01T14:42:05;15.15;;;3.30;;
17696;SDS011;8967;47.984;7.842;2023-02-01T14:44:46;6.90;;;2.28;;
17696;SDS011;8967;47.984;7.842;2023-02-01T14:50:00;10.30;;;2.72;;
17696;SDS011;8967;47.984;7.842;2023-02-01T14:52:45;13.57;;;3.03;;
17696;SDS011;8967;47.984;7.842;2023-02-01T14:55:16;9.95;;;3.08;;
17696;SDS011;8967;47.984;7.842;2023-02-01T14:57:49;10.20;;;2.53;;
17696;SDS011;8967;47.984;7.842;2023-02-01T15:00:21;12.45;;;3.35;;
17696;SDS011;8967;47.984;7.842;2023-02-01T15:02:50;11.05;;;2.88;;
17696;SDS011;8967;47.984;7.842;2023-02-01T15:05:27;8.23;;;2.45;;
17696;SDS011;8967;47.984;7.842;2023-02-01T15:07:57;9.63;;;2.60;;
17696;SDS011;8967;47.984;7.842;2023-02-01T15:10:44;10.10;;;3.03;;
17696;SDS011;8967;47.984;7.842;2023-02-01T15:13:20;11.30;;;3.35;;
17696;SDS011;8967;47.984;7.842;2023-02-01T15:16:01;11.05;;;2.95;;
17696;SDS011;8967;47.984;7.842;2023-02-01T15:18:30;10.35;;;3.17;;
17696;SDS011;8967;47.984;7.842;2023-02-01T15:21:00;11.60;;;2.97;;
17696;SDS011;8967;47.984;7.842;2023-02-01T15:23:28;9.38;;;2.85;;
17696;SDS011;8967;47.984;7.842;2023-02-01T15:25:58;12.43;;;2.55;;
17696;SDS011;8967;47.984;7.842;2023-02-01T15:28:26;21.02;;;3.65;;
17696;SDS011;8967;47.984;7.842;2023-02-01T15:30:56;11.30;;;3.08;;
17696;SDS011;8967;47.984;7.842;2023-02-01T15:33:25;9.73;;;2.70;;
17696;SDS011;8967;47.984;7.842;2023-02-01T15:35:53;11.85;;;2.78;;
17696;SDS011;8967;47.984;7.842;2023-02-01T15:38:33;8.05;;;2.33;;
17696;SDS011;8967;47.984;7.842;2023-02-01T15:41:04;8.98;;;3.03;;
17696;SDS011;8967;47.984;7.842;2023-02-01T15:43:35;13.02;;;2.75;;
17696;SDS011;8967;47.984;7.842;2023-02-01T15:46:06;9.82;;;2.55;;
17696;SDS011;8967;47.984;7.842;2023-02-01T15:48:39;4.78;;;2.35;;
17696;SDS011;8967;47.984;7.842;2023-02-01T15:51:13;12.40;;;3.58;;
17696;SDS011;8967;47.984;7.842;2023-02-01T15:53:45;6.55;;;2.83;;
17696;SDS011;8967;47.984;7.842;2023-02-01T15:56:14;10.52;;;2.65;;
17696;SDS011;8967;47.984;7.842;2023-02-01T15:58:44;7.72;;;2.45;;